sensor_id;sensor_type;location;lat;lon;timestamp;pressure;altitude;pressure_sealevel;temperature;humidity
13705;BME280;6924;52.122;9.952;2023-01-29T00:01:40;101840.22;;;-2.30;99.08
13705;BME280;6924;52.122;9.952;2023-01-29T00:04:06;101828.69;;;-2.33;99.32
13705;BME280;6924;52.122;9.952;2023-01-29T00:06:33;101819.97;;;-2.30;99.47
13705;BME280;6924;52.122;9.952;2023-01-29T00:09:00;101807.69;;;-2.21;99.19
13705;BME280;6924;52.122;9.952;2023-01-29T00:11:26;101801.69;;;-2.24;99.12
13705;BME280;6924;52.122;9.952;2023-01-29T00:13:53;101798.69;;;-2.23;99.47
13705;BME280;6924;52.122;9.952;2023-01-29T00:16:21;101815.56;;;-2.46;100.00
13705;BME280;6924;52.122;9.952;2023-01-29T00:18:48;101805.81;;;-2.42;100.00
13705;BME280;6924;52.122;9.952;2023-01-29T00:21:16;101793.75;;;-2.28;100.00
13705;BME280;6924;52.122;9.952;2023-01-29T00:23:43;101803.66;;;-2.18;100.00
13705;BME280;6924;52.122;9.952;2023-01-29T00:26:10;101797.97;;;-2.10;100.00
13705;BME280;6924;52.122;9.952;2023-01-29T00:28:37;101797.13;;;-2.11;100.00
13705;BME280;6924;52.122;9.952;2023-01-29T00:31:07;101795.25;;;-2.03;99.92
13705;BME280;6924;52.122;9.952;2023-01-29T00:33:36;101803.00;;;-1.92;100.00
13705;BME280;6924;52.122;9.952;2023-01-29T00:36:03;101796.66;;;-2.14;99.75
13705;BME280;6924;52.122;9.952;2023-01-29T00:38:30;101801.69;;;-1.96;100.00
13705;BME280;6924;52.122;9.952;2023-01-29T00:40:57;101804.16;;;-1.80;99.23
13705;BME280;6924;52.122;9.952;2023-01-29T00:43:41;101800.63;;;-1.67;98.55
13705;BME280;6924;52.122;9.952;2023-01-29T00:46:25;101804.75;;;-1.56;98.10
13705;BME280;6924;52.122;9.952;2023-01-29T00:48:52;101804.09;;;-1.58;97.74
13705;BME280;6924;52.122;9.952;2023-01-29T00:51:19;101811.00;;;-1.48;98.02
13705;BME280;6924;52.122;9.952;2023-01-29T00:53:45;101804.59;;;-1.41;97.96
13705;BME280;6924;52.122;9.952;2023-01-29T00:56:11;101804.00;;;-1.37;97.86
13705;BME280;6924;52.122;9.952;2023-01-29T00:58:38;101800.81;;;-1.34;97.64
13705;BME280;6924;52.122;9.952;2023-01-29T01:01:04;101803.19;;;-1.31;97.66
13705;BME280;6924;52.122;9.952;2023-01-29T01:03:31;101791.44;;;-1.26;97.79
13705;BME280;6924;52.122;9.952;2023-01-29T01:06:04;101792.09;;;-1.24;96.98
13705;BME280;6924;52.122;9.952;2023-01-29T01:08:31;101793.41;;;-1.20;96.69
13705;BME280;6924;52.122;9.952;2023-01-29T01:11:16;101788.31;;;-1.16;96.67
13705;BME280;6924;52.122;9.952;2023-01-29T01:13:42;101791.47;;;-1.19;96.91
13705;BME280;6924;52.122;9.952;2023-01-29T01:16:10;101792.75;;;-1.22;96.83
13705;BME280;6924;52.122;9.952;2023-01-29T01:18:37;101796.00;;;-1.18;97.08
13705;BME280;6924;52.122;9.952;2023-01-29T01:21:05;101801.94;;;-1.21;96.45
13705;BME280;6924;52.122;9.952;2023-01-29T01:23:32;101807.13;;;-1.12;96.50
13705;BME280;6924;52.122;9.952;2023-01-29T01:25:58;101802.63;;;-1.06;96.32
13705;BME280;6924;52.122;9.952;2023-01-29T01:28:25;101797.72;;;-1.11;94.88
13705;BME280;6924;52.122;9.952;2023-01-29T01:30:52;101801.59;;;-1.05;95.41
13705;BME280;6924;52.122;9.952;2023-01-29T01:33:19;101790.72;;;-1.00;94.69
13705;BME280;6924;52.122;9.952;2023-01-29T01:35:45;101787.09;;;-0.94;94.13
13705;BME280;6924;52.122;9.952;2023-01-29T01:38:13;101788.41;;;-0.90;94.27
13705;BME280;6924;52.122;9.952;2023-01-29T01:40:43;101787.94;;;-0.93;94.65
13705;BME280;6924;52.122;9.952;2023-01-29T01:43:10;101782.00;;;-0.84;93.99
13705;BME280;6924;52.122;9.952;2023-01-29T01:45:37;101779.88;;;-0.81;93.90
13705;BME280;6924;52.122;9.952;2023-01-29T01:48:06;101767.69;;;-0.80;93.64
13705;BME280;6924;52.122;9.952;2023-01-29T01:50:39;101761.94;;;-0.79;94.05
13705;BME280;6924;52.122;9.952;2023-01-29T01:53:10;101758.50;;;-0.88;93.79
13705;BME280;6924;52.122;9.952;2023-01-29T01:55:41;101755.91;;;-0.96;94.31
13705;BME280;6924;52.122;9.952;2023-01-29T01:58:12;101757.38;;;-1.00;94.38
13705;BME280;6924;52.122;9.952;2023-01-29T02:00:39;101754.59;;;-1.00;93.78
13705;BME280;6924;52.122;9.952;2023-01-29T02:03:08;101761.22;;;-1.01;93.67
13705;BME280;6924;52.122;9.952;2023-01-29T02:05:54;101760.81;;;-0.98;93.48
13705;BME280;6924;52.122;9.952;2023-01-29T02:08:46;101760.13;;;-1.07;93.38
13705;BME280;6924;52.122;9.952;2023-01-29T02:11:37;101748.78;;;-1.18;93.66
13705;BME280;6924;52.122;9.952;2023-01-29T02:14:03;101754.97;;;-1.23;93.95
13705;BME280;6924;52.122;9.952;2023-01-29T02:16:32;101763.09;;;-1.15;93.91
13705;BME280;6924;52.122;9.952;2023-01-29T02:18:59;101773.38;;;-1.09;93.07
13705;BME280;6924;52.122;9.952;2023-01-29T02:21:50;101773.38;;;-1.02;92.37
13705;BME280;6924;52.122;9.952;2023-01-29T02:24:36;101773.66;;;-0.97;92.04
13705;BME280;6924;52.122;9.952;2023-01-29T02:27:09;101773.66;;;-0.97;91.84
13705;BME280;6924;52.122;9.952;2023-01-29T02:29:51;101773.41;;;-0.95;91.53
13705;BME280;6924;52.122;9.952;2023-01-29T02:32:25;101772.13;;;-0.99;91.53
13705;BME280;6924;52.122;9.952;2023-01-29T02:35:03;101769.53;;;-1.08;91.15
13705;BME280;6924;52.122;9.952;2023-01-29T02:37:53;101760.53;;;-1.16;91.40
13705;BME280;6924;52.122;9.952;2023-01-29T02:40:27;101777.63;;;-1.13;91.76
13705;BME280;6924;52.122;9.952;2023-01-29T02:43:00;101782.94;;;-1.18;91.83
13705;BME280;6924;52.122;9.952;2023-01-29T02:45:36;101776.78;;;-1.13;91.26
13705;BME280;6924;52.122;9.952;2023-01-29T02:48:12;101781.69;;;-1.09;91.44
13705;BME280;6924;52.122;9.952;2023-01-29T02:50:44;101781.69;;;-1.09;91.41
13705;BME280;6924;52.122;9.952;2023-01-29T02:53:16;101784.91;;;-1.12;91.55
13705;BME280;6924;52.122;9.952;2023-01-29T02:55:47;101783.41;;;-1.14;91.97
13705;BME280;6924;52.122;9.952;2023-01-29T02:58:18;101788.34;;;-1.03;91.92
13705;BME280;6924;52.122;9.952;2023-01-29T03:00:48;101796.72;;;-0.96;92.22
13705;BME280;6924;52.122;9.952;2023-01-29T03:03:17;101797.75;;;-0.97;92.25
13705;BME280;6924;52.122;9.952;2023-01-29T03:05:49;101787.72;;;-1.05;92.61
13705;BME280;6924;52.122;9.952;2023-01-29T03:08:23;101798.63;;;-1.03;92.96
13705;BME280;6924;52.122;9.952;2023-01-29T03:11:02;101794.97;;;-0.97;92.49
13705;BME280;6924;52.122;9.952;2023-01-29T03:13:34;101791.19;;;-0.90;92.21
13705;BME280;6924;52.122;9.952;2023-01-29T03:16:09;101784.97;;;-0.92;92.63
13705;BME280;6924;52.122;9.952;2023-01-29T03:18:40;101786.66;;;-0.91;92.88
13705;BME280;6924;52.122;9.952;2023-01-29T03:21:14;101775.16;;;-0.88;92.83
13705;BME280;6924;52.122;9.952;2023-01-29T03:24:00;101768.13;;;-0.84;92.83
13705;BME280;6924;52.122;9.952;2023-01-29T03:26:44;101772.41;;;-0.81;92.29
13705;BME280;6924;52.122;9.952;2023-01-29T03:29:29;101764.91;;;-0.87;91.56
13705;BME280;6924;52.122;9.952;2023-01-29T03:32:16;101759.34;;;-0.87;92.40
13705;BME280;6924;52.122;9.952;2023-01-29T03:34:47;101755.72;;;-0.88;92.25
13705;BME280;6924;52.122;9.952;2023-01-29T03:37:20;101752.94;;;-0.88;92.66
13705;BME280;6924;52.122;9.952;2023-01-29T03:39:48;101761.03;;;-0.86;92.97
13705;BME280;6924;52.122;9.952;2023-01-29T03:42:19;101754.44;;;-0.85;92.74
13705;BME280;6924;52.122;9.952;2023-01-29T03:44:54;101762.94;;;-0.93;92.98
13705;BME280;6924;52.122;9.952;2023-01-29T03:47:32;101765.13;;;-0.82;93.35
13705;BME280;6924;52.122;9.952;2023-01-29T03:50:08;101762.34;;;-0.75;92.72
13705;BME280;6924;52.122;9.952;2023-01-29T03:52:41;101757.44;;;-0.67;92.68
13705;BME280;6924;52.122;9.952;2023-01-29T03:55:14;101761.31;;;-0.61;91.78
13705;BME280;6924;52.122;9.952;2023-01-29T03:57:44;101752.56;;;-0.58;91.64
13705;BME280;6924;52.122;9.952;2023-01-29T04:00:15;101754.03;;;-0.62;91.44
13705;BME280;6924;52.122;9.952;2023-01-29T04:02:51;101743.81;;;-0.55;91.30
13705;BME280;6924;52.122;9.952;2023-01-29T04:05:24;101736.53;;;-0.56;91.86
13705;BME280;6924;52.122;9.952;2023-01-29T04:08:02;101737.59;;;-0.57;91.97
13705;BME280;6924;52.122;9.952;2023-01-29T04:10:32;101733.75;;;-0.63;91.97
13705;BME280;6924;52.122;9.952;2023-01-29T04:13:03;101730.75;;;-0.61;92.03
13705;BME280;6924;52.122;9.952;2023-01-29T04:15:35;101723.06;;;-0.52;91.58
13705;BME280;6924;52.122;9.952;2023-01-29T04:18:05;101726.91;;;-0.53;91.20
13705;BME280;6924;52.122;9.952;2023-01-29T04:20:32;101725.19;;;-0.61;91.40
13705;BME280;6924;52.122;9.952;2023-01-29T04:23:01;101713.44;;;-0.63;91.58
13705;BME280;6924;52.122;9.952;2023-01-29T04:25:31;101710.00;;;-0.65;91.69
13705;BME280;6924;52.122;9.952;2023-01-29T04:28:06;101697.81;;;-0.64;92.71
13705;BME280;6924;52.122;9.952;2023-01-29T04:30:41;101693.78;;;-0.75;92.78
13705;BME280;6924;52.122;9.952;2023-01-29T04:33:23;101693.97;;;-0.76;92.76
13705;BME280;6924;52.122;9.952;2023-01-29T04:36:02;101687.34;;;-0.82;92.43
13705;BME280;6924;52.122;9.952;2023-01-29T04:38:41;101685.44;;;-0.81;93.51
13705;BME280;6924;52.122;9.952;2023-01-29T04:41:16;101675.81;;;-0.86;93.86
13705;BME280;6924;52.122;9.952;2023-01-29T04:43:49;101679.22;;;-0.84;93.79
13705;BME280;6924;52.122;9.952;2023-01-29T04:46:26;101673.88;;;-0.78;93.60
13705;BME280;6924;52.122;9.952;2023-01-29T04:49:09;101665.75;;;-0.73;93.56
13705;BME280;6924;52.122;9.952;2023-01-29T04:51:43;101652.50;;;-0.78;93.93
13705;BME280;6924;52.122;9.952;2023-01-29T04:54:17;101648.88;;;-0.78;93.15
13705;BME280;6924;52.122;9.952;2023-01-29T04:56:51;101644.59;;;-0.88;93.71
13705;BME280;6924;52.122;9.952;2023-01-29T04:59:24;101633.06;;;-0.78;94.03
13705;BME280;6924;52.122;9.952;2023-01-29T05:01:53;101632.41;;;-0.73;93.69
13705;BME280;6924;52.122;9.952;2023-01-29T05:04:22;101631.56;;;-0.67;93.75
13705;BME280;6924;52.122;9.952;2023-01-29T05:06:49;101630.72;;;-0.61;93.01
13705;BME280;6924;52.122;9.952;2023-01-29T05:09:17;101639.25;;;-0.49;92.70
13705;BME280;6924;52.122;9.952;2023-01-29T05:11:46;101636.06;;;-0.53;92.14
13705;BME280;6924;52.122;9.952;2023-01-29T05:14:16;101646.75;;;-0.50;92.32
13705;BME280;6924;52.122;9.952;2023-01-29T05:16:46;101651.66;;;-0.52;91.85
13705;BME280;6924;52.122;9.952;2023-01-29T05:19:15;101637.97;;;-0.53;91.81
13705;BME280;6924;52.122;9.952;2023-01-29T05:21:45;101640.75;;;-0.60;91.89
13705;BME280;6924;52.122;9.952;2023-01-29T05:24:14;101643.53;;;-0.53;91.62
13705;BME280;6924;52.122;9.952;2023-01-29T05:26:42;101652.28;;;-0.50;90.99
13705;BME280;6924;52.122;9.952;2023-01-29T05:29:27;101643.50;;;-0.47;91.00
13705;BME280;6924;52.122;9.952;2023-01-29T05:31:53;101661.06;;;-0.59;91.36
13705;BME280;6924;52.122;9.952;2023-01-29T05:34:20;101652.72;;;-0.53;91.20
13705;BME280;6924;52.122;9.952;2023-01-29T05:36:47;101658.50;;;-0.41;90.71
13705;BME280;6924;52.122;9.952;2023-01-29T05:39:14;101655.50;;;-0.33;90.11
13705;BME280;6924;52.122;9.952;2023-01-29T05:41:41;101649.28;;;-0.28;90.09
13705;BME280;6924;52.122;9.952;2023-01-29T05:44:08;101656.75;;;-0.22;90.08
13705;BME280;6924;52.122;9.952;2023-01-29T05:46:35;101658.66;;;-0.16;90.15
13705;BME280;6924;52.122;9.952;2023-01-29T05:49:02;101668.28;;;-0.12;90.08
13705;BME280;6924;52.122;9.952;2023-01-29T05:51:28;101671.25;;;-0.13;89.89
13705;BME280;6924;52.122;9.952;2023-01-29T05:53:56;101677.06;;;-0.22;89.93
13705;BME280;6924;52.122;9.952;2023-01-29T05:56:22;101682.38;;;-0.13;89.05
13705;BME280;6924;52.122;9.952;2023-01-29T05:58:49;101674.28;;;-0.08;89.36
13705;BME280;6924;52.122;9.952;2023-01-29T06:01:18;101668.06;;;-0.10;89.12
13705;BME280;6924;52.122;9.952;2023-01-29T06:03:46;101667.88;;;-0.22;89.29
13705;BME280;6924;52.122;9.952;2023-01-29T06:06:13;101684.34;;;-0.27;90.08
13705;BME280;6924;52.122;9.952;2023-01-29T06:08:39;101676.66;;;-0.32;90.77
13705;BME280;6924;52.122;9.952;2023-01-29T06:11:08;101683.50;;;-0.34;90.72
13705;BME280;6924;52.122;9.952;2023-01-29T06:13:35;101683.06;;;-0.45;91.22
13705;BME280;6924;52.122;9.952;2023-01-29T06:16:03;101695.91;;;-0.44;91.37
13705;BME280;6924;52.122;9.952;2023-01-29T06:18:30;101698.25;;;-0.47;91.10
13705;BME280;6924;52.122;9.952;2023-01-29T06:20:59;101704.25;;;-0.44;91.17
13705;BME280;6924;52.122;9.952;2023-01-29T06:23:25;101702.53;;;-0.45;90.98
13705;BME280;6924;52.122;9.952;2023-01-29T06:25:52;101702.31;;;-0.50;91.10
13705;BME280;6924;52.122;9.952;2023-01-29T06:28:19;101705.75;;;-0.41;91.04
13705;BME280;6924;52.122;9.952;2023-01-29T06:30:46;101696.75;;;-0.36;90.93
13705;BME280;6924;52.122;9.952;2023-01-29T06:33:12;101695.06;;;-0.37;90.67
13705;BME280;6924;52.122;9.952;2023-01-29T06:35:38;101692.91;;;-0.49;90.88
13705;BME280;6924;52.122;9.952;2023-01-29T06:38:05;101681.56;;;-0.40;91.47
13705;BME280;6924;52.122;9.952;2023-01-29T06:40:31;101680.28;;;-0.58;92.20
13705;BME280;6924;52.122;9.952;2023-01-29T06:42:59;101678.59;;;-0.59;92.33
13705;BME280;6924;52.122;9.952;2023-01-29T06:45:27;101666.19;;;-0.50;92.01
13705;BME280;6924;52.122;9.952;2023-01-29T06:47:55;101665.09;;;-0.49;92.40
13705;BME280;6924;52.122;9.952;2023-01-29T06:50:21;101679.88;;;-0.55;92.13
13705;BME280;6924;52.122;9.952;2023-01-29T06:52:47;101695.28;;;-0.46;92.11
13705;BME280;6924;52.122;9.952;2023-01-29T06:55:14;101685.00;;;-0.38;91.90
13705;BME280;6924;52.122;9.952;2023-01-29T06:57:40;101677.75;;;-0.46;91.96
13705;BME280;6924;52.122;9.952;2023-01-29T07:00:08;101696.56;;;-0.35;91.88
13705;BME280;6924;52.122;9.952;2023-01-29T07:02:36;101683.06;;;-0.25;91.75
13705;BME280;6924;52.122;9.952;2023-01-29T07:05:03;101679.44;;;-0.25;91.37
13705;BME280;6924;52.122;9.952;2023-01-29T07:07:29;101677.72;;;-0.26;90.62
13705;BME280;6924;52.122;9.952;2023-01-29T07:09:56;101688.22;;;-0.28;90.96
13705;BME280;6924;52.122;9.952;2023-01-29T07:12:22;101702.50;;;-0.25;90.88
13705;BME280;6924;52.122;9.952;2023-01-29T07:14:48;101722.84;;;-0.24;90.72
13705;BME280;6924;52.122;9.952;2023-01-29T07:17:15;101696.94;;;-0.25;90.52
13705;BME280;6924;52.122;9.952;2023-01-29T07:19:42;101689.69;;;-0.26;90.92
13705;BME280;6924;52.122;9.952;2023-01-29T07:22:09;101719.00;;;-0.30;90.81
13705;BME280;6924;52.122;9.952;2023-01-29T07:24:35;101716.00;;;-0.35;90.86
13705;BME280;6924;52.122;9.952;2023-01-29T07:27:02;101715.78;;;-0.33;91.20
13705;BME280;6924;52.122;9.952;2023-01-29T07:29:28;101709.56;;;-0.29;91.02
13705;BME280;6924;52.122;9.952;2023-01-29T07:31:54;101715.38;;;-0.37;91.29
13705;BME280;6924;52.122;9.952;2023-01-29T07:34:21;101711.94;;;-0.39;92.00
13705;BME280;6924;52.122;9.952;2023-01-29T07:36:51;101710.00;;;-0.38;91.87
13705;BME280;6924;52.122;9.952;2023-01-29T07:39:18;101712.16;;;-0.47;91.81
13705;BME280;6924;52.122;9.952;2023-01-29T07:41:44;101700.38;;;-0.43;91.98
13705;BME280;6924;52.122;9.952;2023-01-29T07:44:11;101700.19;;;-0.41;91.69
13705;BME280;6924;52.122;9.952;2023-01-29T07:46:37;101707.44;;;-0.47;92.86
13705;BME280;6924;52.122;9.952;2023-01-29T07:49:04;101695.69;;;-0.55;93.07
13705;BME280;6924;52.122;9.952;2023-01-29T07:51:30;101682.44;;;-0.53;92.85
13705;BME280;6924;52.122;9.952;2023-01-29T07:53:58;101674.53;;;-0.56;93.45
13705;BME280;6924;52.122;9.952;2023-01-29T07:56:24;101669.19;;;-0.58;93.80
13705;BME280;6924;52.122;9.952;2023-01-29T07:58:50;101661.47;;;-0.56;93.51
13705;BME280;6924;52.122;9.952;2023-01-29T08:01:17;101660.19;;;-0.60;93.44
13705;BME280;6924;52.122;9.952;2023-01-29T08:03:44;101666.84;;;-0.61;93.69
13705;BME280;6924;52.122;9.952;2023-01-29T08:06:10;101672.19;;;-0.66;94.34
13705;BME280;6924;52.122;9.952;2023-01-29T08:08:36;101668.31;;;-0.65;94.19
13705;BME280;6924;52.122;9.952;2023-01-29T08:11:04;101651.00;;;-0.67;94.22
13705;BME280;6924;52.122;9.952;2023-01-29T08:13:31;101638.59;;;-0.58;94.63
13705;BME280;6924;52.122;9.952;2023-01-29T08:15:58;101626.00;;;-0.60;93.86
13705;BME280;6924;52.122;9.952;2023-01-29T08:18:26;101620.00;;;-0.64;95.46
13705;BME280;6924;52.122;9.952;2023-01-29T08:20:52;101626.22;;;-0.62;95.41
13705;BME280;6924;52.122;9.952;2023-01-29T08:23:19;101631.75;;;-0.62;94.72
13705;BME280;6924;52.122;9.952;2023-01-29T08:25:45;101634.34;;;-0.60;94.97
13705;BME280;6924;52.122;9.952;2023-01-29T08:28:13;101638.41;;;-0.56;94.68
13705;BME280;6924;52.122;9.952;2023-01-29T08:30:39;101652.50;;;-0.58;95.37
13705;BME280;6924;52.122;9.952;2023-01-29T08:33:06;101650.16;;;-0.54;95.73
13705;BME280;6924;52.122;9.952;2023-01-29T08:35:32;101650.16;;;-0.48;95.74
13705;BME280;6924;52.122;9.952;2023-01-29T08:38:00;101637.94;;;-0.47;95.79
13705;BME280;6924;52.122;9.952;2023-01-29T08:40:29;101638.38;;;-0.43;95.63
13705;BME280;6924;52.122;9.952;2023-01-29T08:42:56;101634.97;;;-0.45;96.07
13705;BME280;6924;52.122;9.952;2023-01-29T08:45:24;101634.75;;;-0.44;96.02
13705;BME280;6924;52.122;9.952;2023-01-29T08:47:51;101634.78;;;-0.50;96.73
13705;BME280;6924;52.122;9.952;2023-01-29T08:50:17;101632.41;;;-0.47;96.58
13705;BME280;6924;52.122;9.952;2023-01-29T08:52:44;101639.03;;;-0.41;96.99
13705;BME280;6924;52.122;9.952;2023-01-29T08:55:11;101639.25;;;-0.43;97.18
13705;BME280;6924;52.122;9.952;2023-01-29T08:57:38;101637.94;;;-0.40;96.66
13705;BME280;6924;52.122;9.952;2023-01-29T09:00:06;101627.06;;;-0.42;96.46
13705;BME280;6924;52.122;9.952;2023-01-29T09:02:34;101622.34;;;-0.41;96.96
13705;BME280;6924;52.122;9.952;2023-01-29T09:05:01;101621.69;;;-0.36;97.17
13705;BME280;6924;52.122;9.952;2023-01-29T09:07:27;101630.47;;;-0.39;97.50
13705;BME280;6924;52.122;9.952;2023-01-29T09:09:54;101632.81;;;-0.30;97.75
13705;BME280;6924;52.122;9.952;2023-01-29T09:12:20;101628.53;;;-0.26;97.53
13705;BME280;6924;52.122;9.952;2023-01-29T09:14:46;101631.75;;;-0.22;97.87
13705;BME280;6924;52.122;9.952;2023-01-29T09:17:13;101622.53;;;-0.23;97.93
13705;BME280;6924;52.122;9.952;2023-01-29T09:19:40;101607.13;;;-0.25;97.94
13705;BME280;6924;52.122;9.952;2023-01-29T09:22:07;101611.84;;;-0.26;98.17
13705;BME280;6924;52.122;9.952;2023-01-29T09:24:33;101603.06;;;-0.29;98.42
13705;BME280;6924;52.122;9.952;2023-01-29T09:27:00;101606.91;;;-0.24;99.12
13705;BME280;6924;52.122;9.952;2023-01-29T09:29:26;101603.50;;;-0.26;98.45
13705;BME280;6924;52.122;9.952;2023-01-29T09:31:53;101595.56;;;-0.29;98.70
13705;BME280;6924;52.122;9.952;2023-01-29T09:34:19;101589.81;;;-0.34;99.17
13705;BME280;6924;52.122;9.952;2023-01-29T09:36:47;101589.16;;;-0.29;99.57
13705;BME280;6924;52.122;9.952;2023-01-29T09:39:13;101572.06;;;-0.26;99.75
13705;BME280;6924;52.122;9.952;2023-01-29T09:41:47;101586.16;;;-0.21;99.50
13705;BME280;6924;52.122;9.952;2023-01-29T09:44:24;101572.25;;;-0.21;99.46
13705;BME280;6924;52.122;9.952;2023-01-29T09:46:55;101567.34;;;-0.19;99.47
13705;BME280;6924;52.122;9.952;2023-01-29T09:49:28;101568.38;;;-0.13;99.59
13705;BME280;6924;52.122;9.952;2023-01-29T09:52:02;101566.22;;;-0.11;99.30
13705;BME280;6924;52.122;9.952;2023-01-29T09:54:34;101566.84;;;-0.09;98.67
13705;BME280;6924;52.122;9.952;2023-01-29T09:57:09;101552.31;;;-0.11;98.35
13705;BME280;6924;52.122;9.952;2023-01-29T09:59:40;101556.19;;;-0.12;97.66
13705;BME280;6924;52.122;9.952;2023-01-29T10:02:09;101551.91;;;-0.08;98.30
13705;BME280;6924;52.122;9.952;2023-01-29T10:05:01;101554.00;;;-0.04;98.02
13705;BME280;6924;52.122;9.952;2023-01-29T10:08:01;101562.78;;;0.00;97.70
13705;BME280;6924;52.122;9.952;2023-01-29T10:10:42;101558.47;;;0.04;97.89
13705;BME280;6924;52.122;9.952;2023-01-29T10:13:20;101552.00;;;0.10;96.83
13705;BME280;6924;52.122;9.952;2023-01-29T10:16:07;101552.00;;;0.10;96.70
13705;BME280;6924;52.122;9.952;2023-01-29T10:18:59;101550.06;;;0.17;96.97
13705;BME280;6924;52.122;9.952;2023-01-29T10:21:44;101538.25;;;0.22;96.01
13705;BME280;6924;52.122;9.952;2023-01-29T10:24:25;101547.03;;;0.26;96.37
13705;BME280;6924;52.122;9.952;2023-01-29T10:26:56;101557.09;;;0.27;95.28
13705;BME280;6924;52.122;9.952;2023-01-29T10:29:24;101554.28;;;0.33;95.89
13705;BME280;6924;52.122;9.952;2023-01-29T10:31:54;101549.09;;;0.37;94.76
13705;BME280;6924;52.122;9.952;2023-01-29T10:34:25;101541.34;;;0.46;94.63
13705;BME280;6924;52.122;9.952;2023-01-29T10:36:54;101537.91;;;0.44;94.73
13705;BME280;6924;52.122;9.952;2023-01-29T10:39:24;101533.81;;;0.46;93.89
13705;BME280;6924;52.122;9.952;2023-01-29T10:42:05;101532.75;;;0.47;93.66
13705;BME280;6924;52.122;9.952;2023-01-29T10:44:45;101526.09;;;0.48;93.89
13705;BME280;6924;52.122;9.952;2023-01-29T10:47:26;101539.59;;;0.51;nan
13705;BME280;6924;52.122;9.952;2023-01-29T10:50:10;101534.25;;;0.50;92.54
13705;BME280;6924;52.122;9.952;2023-01-29T10:52:55;101534.19;;;0.56;93.10
13705;BME280;6924;52.122;9.952;2023-01-29T10:55:34;101535.25;;;0.62;92.84
13705;BME280;6924;52.122;9.952;2023-01-29T10:58:08;101526.66;;;0.64;92.82
13705;BME280;6924;52.122;9.952;2023-01-29T11:00:40;101527.09;;;0.60;93.15
13705;BME280;6924;52.122;9.952;2023-01-29T11:03:13;101525.34;;;0.66;92.90
13705;BME280;6924;52.122;9.952;2023-01-29T11:05:43;101532.00;;;0.65;92.07
13705;BME280;6924;52.122;9.952;2023-01-29T11:08:14;101517.66;;;0.61;91.67
13705;BME280;6924;52.122;9.952;2023-01-29T11:10:48;101508.03;;;0.64;91.73
13705;BME280;6924;52.122;9.952;2023-01-29T11:13:18;101505.28;;;0.57;91.44
13705;BME280;6924;52.122;9.952;2023-01-29T11:15:44;101493.06;;;0.58;91.33
13705;BME280;6924;52.122;9.952;2023-01-29T11:18:12;101490.44;;;0.64;91.39
13705;BME280;6924;52.122;9.952;2023-01-29T11:20:40;101483.81;;;0.65;91.03
13705;BME280;6924;52.122;9.952;2023-01-29T11:23:23;101475.47;;;0.65;91.32
13705;BME280;6924;52.122;9.952;2023-01-29T11:25:53;101468.78;;;0.66;91.21
13705;BME280;6924;52.122;9.952;2023-01-29T11:28:35;101466.59;;;0.74;91.52
13705;BME280;6924;52.122;9.952;2023-01-29T11:31:02;101462.28;;;0.78;91.30
13705;BME280;6924;52.122;9.952;2023-01-29T11:33:29;101455.78;;;0.85;91.24
13705;BME280;6924;52.122;9.952;2023-01-29T11:35:55;101458.09;;;0.88;90.76
13705;BME280;6924;52.122;9.952;2023-01-29T11:38:24;101456.63;;;0.85;89.51
13705;BME280;6924;52.122;9.952;2023-01-29T11:41:04;101445.44;;;0.92;90.21
13705;BME280;6924;52.122;9.952;2023-01-29T11:43:31;101438.53;;;0.94;90.84
13705;BME280;6924;52.122;9.952;2023-01-29T11:46:01;101440.56;;;1.06;90.29
13705;BME280;6924;52.122;9.952;2023-01-29T11:48:34;101443.13;;;1.07;90.17
13705;BME280;6924;52.122;9.952;2023-01-29T11:51:05;101443.69;;;1.16;89.61
13705;BME280;6924;52.122;9.952;2023-01-29T11:53:37;101432.31;;;1.17;89.00
13705;BME280;6924;52.122;9.952;2023-01-29T11:56:16;101439.75;;;1.23;89.35
13705;BME280;6924;52.122;9.952;2023-01-29T11:58:44;101430.44;;;1.30;89.25
13705;BME280;6924;52.122;9.952;2023-01-29T12:01:14;101430.69;;;1.28;88.37
13705;BME280;6924;52.122;9.952;2023-01-29T12:03:45;101426.88;;;1.22;87.78
13705;BME280;6924;52.122;9.952;2023-01-29T12:06:18;101421.72;;;1.26;87.50
13705;BME280;6924;52.122;9.952;2023-01-29T12:08:52;101425.13;;;1.28;88.27
13705;BME280;6924;52.122;9.952;2023-01-29T12:11:27;101419.69;;;1.33;88.29
13705;BME280;6924;52.122;9.952;2023-01-29T12:13:55;101418.78;;;1.39;88.06
13705;BME280;6924;52.122;9.952;2023-01-29T12:16:26;101424.78;;;1.36;87.47
13705;BME280;6924;52.122;9.952;2023-01-29T12:18:57;101410.00;;;1.36;87.90
13705;BME280;6924;52.122;9.952;2023-01-29T12:21:32;101403.97;;;1.39;86.76
13705;BME280;6924;52.122;9.952;2023-01-29T12:24:02;101396.84;;;1.43;87.05
13705;BME280;6924;52.122;9.952;2023-01-29T12:26:35;101395.28;;;1.47;87.20
13705;BME280;6924;52.122;9.952;2023-01-29T12:29:22;101395.19;;;1.54;87.64
13705;BME280;6924;52.122;9.952;2023-01-29T12:31:56;101385.50;;;1.56;86.88
13705;BME280;6924;52.122;9.952;2023-01-29T12:34:32;101381.41;;;1.59;86.03
13705;BME280;6924;52.122;9.952;2023-01-29T12:37:09;101380.38;;;1.72;85.18
13705;BME280;6924;52.122;9.952;2023-01-29T12:39:38;101378.25;;;1.85;85.21
13705;BME280;6924;52.122;9.952;2023-01-29T12:42:09;101379.44;;;1.78;84.30
13705;BME280;6924;52.122;9.952;2023-01-29T12:44:40;101373.13;;;1.82;84.93
13705;BME280;6924;52.122;9.952;2023-01-29T12:47:13;101371.97;;;1.90;84.67
13705;BME280;6924;52.122;9.952;2023-01-29T12:49:44;101370.16;;;1.96;84.78
13705;BME280;6924;52.122;9.952;2023-01-29T12:52:15;101373.41;;;1.93;84.39
13705;BME280;6924;52.122;9.952;2023-01-29T12:54:49;101382.97;;;1.85;83.70
13705;BME280;6924;52.122;9.952;2023-01-29T12:57:22;101376.59;;;1.96;83.86
13705;BME280;6924;52.122;9.952;2023-01-29T12:59:53;101380.06;;;1.92;83.91
13705;BME280;6924;52.122;9.952;2023-01-29T13:02:31;101370.41;;;1.94;83.67
13705;BME280;6924;52.122;9.952;2023-01-29T13:05:03;101368.50;;;1.76;83.84
13705;BME280;6924;52.122;9.952;2023-01-29T13:07:35;101373.94;;;1.71;82.61
13705;BME280;6924;52.122;9.952;2023-01-29T13:10:09;101368.78;;;1.86;83.56
13705;BME280;6924;52.122;9.952;2023-01-29T13:12:45;101378.78;;;1.94;83.69
13705;BME280;6924;52.122;9.952;2023-01-29T13:15:21;101374.50;;;1.92;83.29
13705;BME280;6924;52.122;9.952;2023-01-29T13:17:51;101364.94;;;1.99;83.44
13705;BME280;6924;52.122;9.952;2023-01-29T13:20:23;101365.16;;;1.86;83.72
13705;BME280;6924;52.122;9.952;2023-01-29T13:22:55;101355.84;;;1.92;84.07